Time;durP1;ratioP1;P1;durP2;ratioP2;P2;SDS_P1;SDS_P2;PMS_P1;PMS_P2;Temp;Humidity;BMP_temperature;BMP_pressure;BME280_temperature;BME280_humidity;BME280_pressure;Samples;Min_cycle;Max_cycle;Signal;HPM_P1;HPM_P2
2022/12/12 00:01:36;;;;;;;40.43;23.55;;;;;;;-0.69;100.00;99229.99;2789467;83;21080;-89
2022/12/12 00:05:38;;;;;;;38.10;20.75;;;;;;;-0.66;100.00;99229.38;2738226;84;21041;-91
2022/12/12 00:09:39;;;;;;;28.07;21.17;;;;;;;-0.70;100.00;99236.14;2726258;85;21048;-89
2022/12/12 00:13:40;;;;;;;34.75;20.48;;;;;;;-0.61;100.00;99233.03;2781563;83;21646;-90
2022/12/12 00:17:42;;;;;;;36.95;21.82;;;;;;;-0.64;100.00;99230.59;2762219;83;21092;-90
2022/12/12 00:21:43;;;;;;;36.73;19.95;;;;;;;-0.64;100.00;99238.42;2679326;84;21066;-91
2022/12/12 00:25:44;;;;;;;36.40;19.62;;;;;;;-0.67;100.00;99236.84;2716100;84;21039;-90
2022/12/12 00:29:52;;;;;;;35.00;19.05;;;;;;;-0.68;100.00;99238.20;2758860;84;21662;-88
2022/12/12 00:33:54;;;;;;;42.58;22.22;;;;;;;-0.62;100.00;99230.90;2765037;84;21647;-90
2022/12/12 00:37:55;;;;;;;32.35;21.97;;;;;;;-0.62;100.00;99226.98;2763102;84;21080;-91
2022/12/12 00:41:56;;;;;;;35.17;17.85;;;;;;;-0.62;100.00;99234.81;2764372;85;21540;-91
2022/12/12 00:45:59;;;;;;;29.27;18.12;;;;;;;-0.62;100.00;99241.34;2737731;85;21041;-91
2022/12/12 00:50:00;;;;;;;37.33;19.95;;;;;;;-0.55;100.00;99243.18;2747883;85;21107;-91
2022/12/12 00:54:02;;;;;;;36.45;17.80;;;;;;;-0.59;100.00;99237.71;2770166;84;21175;-90
2022/12/12 00:58:03;;;;;;;42.43;23.00;;;;;;;-0.61;100.00;99238.26;2757073;85;21028;-91
2022/12/12 01:02:04;;;;;;;37.75;20.72;;;;;;;-0.60;100.00;99247.34;2748104;84;21041;-90
2022/12/12 01:06:06;;;;;;;30.40;18.20;;;;;;;-0.58;100.00;99235.03;2751316;85;21549;-90
2022/12/12 01:10:09;;;;;;;38.90;19.42;;;;;;;-0.54;100.00;99229.64;2763431;85;21524;-90
2022/12/12 01:14:10;;;;;;;34.83;20.48;;;;;;;-0.58;100.00;99249.88;2745861;84;21045;-91
2022/12/12 01:18:12;;;;;;;37.38;21.50;;;;;;;-0.54;100.00;99240.95;2693076;86;21080;-90
2022/12/12 01:22:14;;;;;;;31.35;18.55;;;;;;;-0.55;100.00;99236.66;2673986;87;21130;-90
2022/12/12 01:26:20;;;;;;;38.23;19.77;;;;;;;-0.61;100.00;99241.73;2673272;88;21032;-90
2022/12/12 01:30:22;;;;;;;40.48;22.75;;;;;;;-0.59;100.00;99243.80;2662479;87;21028;-89
2022/12/12 01:34:23;;;;;;;36.40;20.25;;;;;;;-0.52;100.00;99239.09;2685463;86;21084;-89
2022/12/12 01:38:25;;;;;;;38.92;17.98;;;;;;;-0.52;100.00;99237.80;2698714;86;21087;-91
2022/12/12 01:42:28;;;;;;;40.28;22.82;;;;;;;-0.54;100.00;99235.72;2652981;87;21063;-90
2022/12/12 01:46:43;;;;;;;37.00;17.82;;;;;;;-0.46;100.00;99238.77;2660295;88;21142;-89
2022/12/12 01:50:45;;;;;;;33.25;22.70;;;;;;;-0.52;100.00;99241.71;2668099;88;21055;-89
2022/12/12 01:54:51;;;;;;;38.83;19.30;;;;;;;-0.51;100.00;99233.39;2672963;87;21063;-90
2022/12/12 01:58:55;;;;;;;36.95;21.07;;;;;;;-0.56;100.00;99235.41;2673381;87;21113;-89
2022/12/12 02:02:57;;;;;;;26.85;19.73;;;;;;;-0.53;100.00;99241.77;2672951;87;21130;-90
2022/12/12 02:06:58;;;;;;;28.85;15.72;;;;;;;-0.54;100.00;99234.42;2667472;87;21043;-89
2022/12/12 02:11:00;;;;;;;36.10;20.08;;;;;;;-0.61;100.00;99249.56;2672187;87;21087;-89
2022/12/12 02:15:01;;;;;;;35.88;16.42;;;;;;;-0.56;100.00;99242.80;2723163;84;21083;-89
2022/12/12 02:19:49;;;;;;;29.80;18.07;;;;;;;-0.58;100.00;99247.27;2745365;84;21111;-90
2022/12/12 02:24:05;;;;;;;31.02;20.23;;;;;;;-0.54;100.00;99233.56;2767941;83;21007;-90
2022/12/12 02:28:42;;;;;;;32.00;22.30;;;;;;;-0.54;100.00;99244.87;2788319;83;21015;-90
2022/12/12 02:33:08;;;;;;;37.98;21.57;;;;;;;-0.47;100.00;99238.38;2788308;83;21555;-90
2022/12/12 02:37:24;;;;;;;42.90;25.12;;;;;;;-0.53;100.00;99241.33;2748318;83;21104;-90
2022/12/12 02:41:52;;;;;;;31.77;17.65;;;;;;;-0.47;100.00;99235.77;2686009;87;21099;-90
2022/12/12 02:46:07;;;;;;;34.13;17.35;;;;;;;-0.52;100.00;99244.77;2781583;83;21502;-89
2022/12/12 02:50:16;;;;;;;35.73;20.12;;;;;;;-0.60;100.00;99240.80;2673050;87;21610;-90
2022/12/12 02:54:20;;;;;;;34.15;17.73;;;;;;;-0.55;100.00;99243.62;2649297;86;21092;-90
2022/12/12 02:58:21;;;;;;;30.62;17.82;;;;;;;-0.61;100.00;99240.87;2749513;84;21112;-90
2022/12/12 03:02:49;;;;;;;37.10;22.73;;;;;;;-0.57;100.00;99231.97;2734979;84;21051;-90
2022/12/12 03:11:58;;;;;;;38.02;23.47;;;;;;;-0.58;100.00;99239.43;2627533;88;21977;-89
2022/12/12 03:16:28;;;;;;;35.68;21.37;;;;;;;-0.52;100.00;99239.09;2580500;88;21079;-91
2022/12/12 03:20:53;;;;;;;37.35;19.95;;;;;;;-0.53;100.00;99246.55;2557194;91;21130;-90
2022/12/12 03:25:06;;;;;;;38.40;23.25;;;;;;;-0.47;100.00;99234.46;2559604;91;21086;-90
2022/12/12 03:29:15;;;;;;;35.80;20.35;;;;;;;-0.53;100.00;99228.27;2559618;91;21102;-90
2022/12/12 03:33:34;;;;;;;26.00;17.25;;;;;;;-0.49;100.00;99227.62;2559182;91;21082;-91
2022/12/12 03:37:40;;;;;;;38.63;22.52;;;;;;;-0.53;100.00;99233.48;2544672;91;21051;-91
2022/12/12 03:41:47;;;;;;;28.60;16.77;;;;;;;-0.46;100.00;99230.92;2588593;87;21565;-89
2022/12/12 03:46:09;;;;;;;30.35;21.75;;;;;;;-0.54;100.00;99234.86;2725448;86;21086;-90
2022/12/12 03:50:21;;;;;;;36.53;20.30;;;;;;;-0.42;100.00;99226.84;2720465;86;21574;-91
2022/12/12 03:54:37;;;;;;;31.30;17.00;;;;;;;-0.47;100.00;99230.55;2717012;86;21114;-90
2022/12/12 03:58:46;;;;;;;30.00;19.27;;;;;;;-0.37;100.00;99237.91;2722835;85;21709;-93
2022/12/12 04:03:02;;;;;;;28.00;18.95;;;;;;;-0.47;100.00;99231.84;2737758;84;21062;-91
2022/12/12 04:07:15;;;;;;;28.10;15.27;;;;;;;-0.49;100.00;99235.45;2738617;84;21115;-92
2022/12/12 04:16:02;;;;;;;23.35;14.70;;;;;;;-0.35;100.00;99226.91;2741505;84;21020;-91
2022/12/12 04:24:51;;;;;;;23.83;15.35;;;;;;;-0.37;100.00;99226.15;2824817;84;21063;-64
2022/12/12 04:29:07;;;;;;;24.10;14.98;;;;;;;-0.27;100.00;99222.09;2825400;84;21075;-62
2022/12/12 04:33:12;;;;;;;26.77;16.10;;;;;;;-0.30;100.00;99224.88;2825200;84;21023;-63
2022/12/12 04:37:19;;;;;;;20.53;13.73;;;;;;;-0.24;100.00;99228.94;2828801;84;20949;-62
2022/12/12 04:41:22;;;;;;;24.32;15.95;;;;;;;-0.22;100.00;99221.38;2827492;84;21075;-65
2022/12/12 04:45:40;;;;;;;23.07;12.70;;;;;;;-0.20;100.00;99227.36;2794049;84;21148;-61
2022/12/12 04:49:44;;;;;;;23.73;15.95;;;;;;;-0.23;100.00;99219.70;2788150;84;20937;-65
2022/12/12 04:53:53;;;;;;;22.30;14.68;;;;;;;-0.23;100.00;99219.70;2830208;83;21026;-62
2022/12/12 04:57:55;;;;;;;31.30;14.83;;;;;;;-0.20;100.00;99226.05;2849285;82;21010;-63
2022/12/12 05:02:35;;;;;;;32.28;13.35;;;;;;;-0.16;100.00;99228.05;2849955;82;21059;-62
2022/12/12 05:06:45;;;;;;;21.10;11.45;;;;;;;-0.12;100.00;99223.51;2817524;84;21035;-61
2022/12/12 05:10:51;;;;;;;24.15;16.90;;;;;;;-0.22;100.00;99221.38;2801045;83;21015;-63
2022/12/12 05:14:52;;;;;;;18.37;10.58;;;;;;;-0.07;100.00;99226.70;2828624;83;21040;-62
2022/12/12 05:19:05;;;;;;;21.02;11.30;;;;;;;-0.08;100.00;99225.02;2830092;83;20974;-61
2022/12/12 05:23:06;;;;;;;25.40;14.95;;;;;;;-0.12;100.00;99216.49;2836951;82;20996;-62
2022/12/12 05:27:11;;;;;;;26.30;15.80;;;;;;;-0.03;100.00;99228.22;2853655;82;21052;-61
2022/12/12 05:31:12;;;;;;;21.40;12.63;;;;;;;-0.03;100.00;99216.00;2812081;83;21020;-61
2022/12/12 05:35:14;;;;;;;21.85;11.65;;;;;;;-0.05;100.00;99220.92;2793047;84;21046;-61
2022/12/12 05:39:15;;;;;;;22.87;13.08;;;;;;;-0.08;100.00;99208.03;2846988;82;21004;-62
2022/12/12 05:43:17;;;;;;;22.15;13.68;;;;;;;-0.09;100.00;99216.80;2833344;84;21056;-62
2022/12/12 05:47:25;;;;;;;21.33;15.85;;;;;;;-0.09;100.00;99220.72;2833494;84;20996;-62
2022/12/12 05:51:26;;;;;;;22.48;13.38;;;;;;;-0.10;100.00;99222.95;2828538;84;21004;-62
2022/12/12 05:55:27;;;;;;;29.10;16.97;;;;;;;-0.15;100.00;99224.06;2824164;81;21087;-63
2022/12/12 05:59:29;;;;;;;25.02;14.93;;;;;;;-0.10;100.00;99226.40;2794812;84;21044;-63
2022/12/12 06:03:32;;;;;;;25.88;15.10;;;;;;;-0.12;100.00;99229.56;2825138;83;21040;-63
2022/12/12 06:07:33;;;;;;;25.40;12.53;;;;;;;-0.13;100.00;99229.66;2827597;83;21028;-64
2022/12/12 06:11:43;;;;;;;28.67;14.70;;;;;;;-0.12;100.00;99233.48;2789520;84;21024;-62
2022/12/12 06:15:44;;;;;;;24.82;16.37;;;;;;;-0.15;100.00;99235.82;2825128;84;21089;-63
2022/12/12 06:19:45;;;;;;;23.30;16.17;;;;;;;-0.13;100.00;99234.89;2823960;84;21095;-62
2022/12/12 06:23:47;;;;;;;26.50;12.70;;;;;;;-0.13;100.00;99234.89;2777973;84;21071;-63
2022/12/12 06:27:50;;;;;;;22.98;17.62;;;;;;;-0.26;100.00;99238.16;2852451;83;21067;-62
2022/12/12 06:31:52;;;;;;;26.35;18.10;;;;;;;-0.21;100.00;99240.05;2847380;83;21071;-62
2022/12/12 06:36:06;;;;;;;15.43;10.50;;;;;;;-0.30;100.00;99234.03;2829803;83;21020;-62
2022/12/12 06:40:10;;;;;;;23.18;14.65;;;;;;;-0.34;100.00;99239.87;2840741;83;21016;-64
2022/12/12 06:44:11;;;;;;;25.30;13.88;;;;;;;-0.21;100.00;99240.05;2827434;83;20990;-62
2022/12/12 06:48:12;;;;;;;22.48;16.55;;;;;;;-0.24;100.00;99249.38;2828995;83;20979;-62
2022/12/12 06:52:14;;;;;;;19.87;12.73;;;;;;;-0.22;100.00;99248.00;2864730;81;21044;-63
2022/12/12 06:56:20;;;;;;;22.10;15.48;;;;;;;-0.30;100.00;99253.63;2877760;82;21589;-62
2022/12/12 07:00:22;;;;;;;25.15;14.28;;;;;;;-0.22;100.00;99251.92;2774148;84;21059;-64
2022/12/12 07:04:24;;;;;;;25.20;16.00;;;;;;;-0.25;100.00;99247.69;2763057;84;21016;-63
2022/12/12 07:08:27;;;;;;;29.55;14.58;;;;;;;-0.19;100.00;99249.99;2824614;83;21006;-63
2022/12/12 07:12:28;;;;;;;26.68;15.75;;;;;;;-0.24;100.00;99251.98;2825051;83;21040;-61
2022/12/12 07:16:29;;;;;;;32.15;17.12;;;;;;;-0.14;100.00;99247.11;2825268;84;21059;-63
2022/12/12 07:20:30;;;;;;;25.12;16.85;;;;;;;-0.14;100.00;99261.48;2825320;84;21048;-63
2022/12/12 07:24:36;;;;;;;22.73;12.82;;;;;;;-0.03;100.00;99266.12;2825368;84;21035;-62
2022/12/12 07:28:38;;;;;;;20.12;12.73;;;;;;;-0.09;100.00;99255.56;2825208;84;20997;-64
2022/12/12 07:32:39;;;;;;;20.08;14.63;;;;;;;-0.09;100.00;99264.72;2825382;84;20968;-63
2022/12/12 07:36:46;;;;;;;22.35;13.90;;;;;;;-0.04;100.00;99262.69;2821842;84;21027;-64
2022/12/12 07:40:47;;;;;;;23.50;16.05;;;;;;;-0.02;100.00;99274.35;2827810;84;21090;-62
2022/12/12 07:44:49;;;;;;;28.15;14.45;;;;;;;0.00;100.00;99272.53;2824849;83;21551;-62
2022/12/12 07:48:59;;;;;;;26.45;15.72;;;;;;;0.05;100.00;99286.63;2866965;83;20988;-62
2022/12/12 07:53:00;;;;;;;18.50;12.47;;;;;;;-0.07;100.00;99275.07;2842795;82;21027;-64
2022/12/12 07:57:02;;;;;;;24.98;15.50;;;;;;;-0.01;100.00;99284.73;2825188;83;20980;-64
2022/12/12 08:01:14;;;;;;;26.87;18.65;;;;;;;-0.02;100.00;99290.90;2825108;84;21075;-63
2022/12/12 08:05:21;;;;;;;27.67;15.98;;;;;;;0.03;100.00;99282.81;2847656;80;20988;-62
2022/12/12 08:09:22;;;;;;;19.20;13.22;;;;;;;0.02;100.00;99277.66;2825863;82;21095;-62
2022/12/12 08:13:43;;;;;;;20.08;13.05;;;;;;;-0.06;100.00;99280.68;2797444;84;21039;-63
2022/12/12 08:17:45;;;;;;;16.15;10.88;;;;;;;-0.05;100.00;99276.69;2825161;83;21023;-62
2022/12/12 08:21:46;;;;;;;22.60;12.85;;;;;;;-0.02;100.00;99290.04;2817903;83;21017;-62
2022/12/12 08:25:48;;;;;;;23.35;16.62;;;;;;;-0.03;100.00;99287.05;2819161;84;21119;-62
2022/12/12 08:29:52;;;;;;;20.92;14.35;;;;;;;0.11;100.00;99281.09;2806382;84;21082;-62
2022/12/12 08:33:55;;;;;;;21.68;14.13;;;;;;;0.14;100.00;99286.98;2845223;83;20988;-62
2022/12/12 08:38:01;;;;;;;23.32;11.63;;;;;;;0.09;100.00;99294.69;2809481;84;21013;-62
2022/12/12 08:42:03;;;;;;;26.02;16.20;;;;;;;0.08;100.00;99286.02;2821218;83;21024;-62
2022/12/12 08:46:06;;;;;;;24.72;15.78;;;;;;;0.14;100.00;99294.00;2809270;84;20997;-63
2022/12/12 08:50:10;;;;;;;22.87;14.60;;;;;;;0.13;100.00;99302.30;2821508;84;21051;-62
2022/12/12 08:54:13;;;;;;;27.42;16.73;;;;;;;0.15;100.00;99289.14;2774173;84;21087;-63
2022/12/12 08:58:30;;;;;;;22.75;15.80;;;;;;;0.19;100.00;99305.48;2820494;84;21030;-62
2022/12/12 09:02:31;;;;;;;19.15;13.55;;;;;;;0.17;100.00;99310.83;2807717;85;20985;-62
2022/12/12 09:06:32;;;;;;;19.17;13.68;;;;;;;0.22;100.00;99311.89;2807480;84;21394;-62
2022/12/12 09:10:34;;;;;;;18.40;10.20;;;;;;;0.36;100.00;99314.57;2779751;83;70723;-95
2022/12/12 09:14:36;;;;;;;24.35;13.38;;;;;;;0.38;100.00;99321.04;2817028;82;21107;-95
2022/12/12 09:18:40;;;;;;;20.77;13.15;;;;;;;0.53;100.00;99319.34;2814077;82;21025;-95
2022/12/12 09:22:42;;;;;;;22.82;14.58;;;;;;;0.52;100.00;99317.65;2794109;83;20972;-94
2022/12/12 09:26:43;;;;;;;17.70;10.95;;;;;;;0.64;100.00;99315.66;2720568;85;22362;-95
2022/12/12 09:30:46;;;;;;;20.92;11.85;;;;;;;0.61;100.00;99325.45;2820656;81;21026;-95
2022/12/12 09:34:47;;;;;;;19.73;12.20;;;;;;;0.74;100.00;99321.23;2720773;85;21064;-95
2022/12/12 09:38:49;;;;;;;27.10;21.95;;;;;;;0.90;100.00;99325.12;2772406;83;21068;-96
2022/12/12 09:42:51;;;;;;;42.55;28.12;;;;;;;0.92;100.00;99327.66;2792943;83;21027;-95
2022/12/12 09:47:00;;;;;;;24.07;17.32;;;;;;;0.92;100.00;99334.20;2813817;84;21000;-95
2022/12/12 09:51:02;;;;;;;15.60;11.05;;;;;;;0.98;100.00;99336.47;2800509;83;21023;-96
2022/12/12 09:55:31;;;;;;;11.68;8.25;;;;;;;0.98;100.00;99335.16;2804774;82;21034;-93
2022/12/12 09:59:56;;;;;;;19.27;13.05;;;;;;;1.03;100.00;99334.90;2813935;83;21375;-95
2022/12/12 10:04:21;;;;;;;9.20;7.42;;;;;;;1.09;100.00;99334.08;2814816;81;21113;-95
2022/12/12 10:08:46;;;;;;;18.92;9.80;;;;;;;1.11;100.00;99345.77;2805101;82;21094;-95
2022/12/12 10:12:49;;;;;;;12.28;8.30;;;;;;;1.13;100.00;99338.66;2778874;83;21151;-93
2022/12/12 10:16:51;;;;;;;13.48;6.70;;;;;;;1.17;100.00;99346.70;2773980;83;21539;-96
2022/12/12 10:20:57;;;;;;;11.20;6.55;;;;;;;1.16;100.00;99342.89;2759591;83;21038;-96
2022/12/12 10:25:22;;;;;;;10.58;6.95;;;;;;;1.31;100.00;99335.90;2755290;83;21555;-96
2022/12/12 10:29:25;;;;;;;12.43;8.13;;;;;;;1.38;100.00;99347.73;2763723;83;21118;-94
2022/12/12 10:33:59;;;;;;;12.73;7.30;;;;;;;1.40;100.00;99348.00;2774778;83;21043;-96
2022/12/12 10:38:27;;;;;;;19.17;11.18;;;;;;;1.44;100.00;99342.12;2748818;84;20999;-96
2022/12/12 10:42:37;;;;;;;15.38;9.90;;;;;;;1.61;100.00;99332.41;2797942;83;21070;-95
2022/12/12 10:46:53;;;;;;;20.25;12.13;;;;;;;1.59;100.00;99339.53;2771936;83;21091;-93
2022/12/12 10:50:59;;;;;;;91.45;39.92;;;;;;;1.74;100.00;99337.75;2739173;85;21039;-96
2022/12/12 10:55:02;;;;;;;83.37;41.55;;;;;;;1.82;100.00;99343.36;2752695;84;21051;-96
2022/12/12 10:59:04;;;;;;;119.77;53.23;;;;;;;1.85;98.97;99345.34;2751767;83;21539;-90
2022/12/12 11:03:28;;;;;;;61.63;29.80;;;;;;;1.89;98.57;99340.77;2760401;84;21079;-95
2022/12/12 11:07:30;;;;;;;29.30;14.47;;;;;;;2.00;98.67;99342.73;2653963;86;21054;-96
2022/12/12 11:11:32;;;;;;;20.45;9.45;;;;;;;1.92;97.81;99343.19;2773749;83;20987;-96
2022/12/12 11:15:44;;;;;;;23.42;12.33;;;;;;;1.85;97.51;99341.41;2820424;82;20995;-94
2022/12/12 11:19:46;;;;;;;12.18;7.55;;;;;;;1.92;98.20;99342.34;2832633;82;21052;-95
2022/12/12 11:23:54;;;;;;;12.82;10.55;;;;;;;1.95;97.88;99352.64;2804948;83;21182;-94
2022/12/12 11:28:00;;;;;;;18.48;9.98;;;;;;;1.96;96.53;99339.89;2802083;83;21051;-96
2022/12/12 11:32:03;;;;;;;11.57;7.03;;;;;;;2.04;95.90;99347.30;2816060;83;21043;-96
2022/12/12 11:36:05;;;;;;;16.97;9.10;;;;;;;2.03;96.15;99349.09;2801237;83;21532;-94
2022/12/12 11:40:21;;;;;;;8.68;7.08;;;;;;;2.01;96.37;99354.91;2801845;83;21542;-95
2022/12/12 11:44:28;;;;;;;19.53;13.13;;;;;;;1.97;95.70;99350.30;2696791;86;21055;-95
2022/12/12 11:48:38;;;;;;;33.15;16.93;;;;;;;2.04;94.23;99356.02;2727110;85;21090;-94
2022/12/12 11:52:39;;;;;;;25.55;15.18;;;;;;;2.17;93.77;99352.66;2713697;86;21111;-95
2022/12/12 11:57:00;;;;;;;13.32;8.88;;;;;;;2.15;94.10;99347.49;2706554;86;21046;-96
2022/12/12 12:01:21;;;;;;;14.15;7.85;;;;;;;2.06;95.88;99356.77;2725900;86;21039;-95
2022/12/12 12:05:55;;;;;;;13.00;8.75;;;;;;;1.95;97.56;99349.56;2714065;85;21093;-96
2022/12/12 12:10:24;;;;;;;13.68;8.60;;;;;;;1.78;98.01;99354.53;2651169;87;21107;-94
2022/12/12 12:14:56;;;;;;;13.18;8.75;;;;;;;1.74;98.51;99347.76;2648541;87;21126;-95
2022/12/12 12:19:12;;;;;;;14.40;8.68;;;;;;;1.66;98.33;99354.77;2645912;86;21065;-96
2022/12/12 12:23:43;;;;;;;13.38;8.03;;;;;;;1.57;98.15;99363.20;2699015;87;21069;-95
2022/12/12 12:28:25;;;;;;;8.78;7.00;;;;;;;1.51;99.25;99355.22;2684881;85;21112;-93
2022/12/12 12:32:54;;;;;;;12.07;6.53;;;;;;;1.54;98.26;99364.69;2698455;85;21029;-94
2022/12/12 12:37:13;;;;;;;44.10;17.50;;;;;;;1.54;98.30;99374.70;2712960;85;21073;-94
2022/12/12 12:42:03;;;;;;;24.70;12.75;;;;;;;1.48;97.56;99379.00;2726106;85;21073;-95
2022/12/12 12:46:32;;;;;;;56.45;25.85;;;;;;;1.53;97.04;99370.39;2774211;81;21566;-95
2022/12/12 12:50:54;;;;;;;18.37;8.28;;;;;;;1.58;96.04;99386.34;2808443;83;21031;-93
2022/12/12 12:54:59;;;;;;;25.02;16.20;;;;;;;1.58;91.29;99380.61;2802098;83;21035;-95
2022/12/12 12:59:16;;;;;;;19.48;8.08;;;;;;;1.65;92.62;99380.61;2721147;86;21083;-92
2022/12/12 13:03:23;;;;;;;7.37;5.58;;;;;;;1.71;91.76;99381.58;2813687;83;21374;-94
2022/12/12 13:07:36;;;;;;;10.05;5.92;;;;;;;1.74;90.53;99384.95;2844956;83;21069;-92
2022/12/12 13:11:41;;;;;;;11.68;6.92;;;;;;;1.77;91.11;99388.25;2818417;83;21090;-93
2022/12/12 13:16:07;;;;;;;7.05;5.28;;;;;;;1.73;93.13;99390.65;2793973;83;21052;-93
2022/12/12 13:20:15;;;;;;;11.63;8.78;;;;;;;1.61;92.04;99395.33;2801958;82;21111;-94
2022/12/12 13:24:58;;;;;;;7.30;5.97;;;;;;;1.71;92.26;99401.70;2803613;82;21048;-92
2022/12/12 13:29:05;;;;;;;46.73;18.73;;;;;;;1.70;92.69;99402.63;2780088;83;21102;-95
2022/12/12 13:33:18;;;;;;;19.45;12.90;;;;;;;1.61;93.14;99401.40;2820578;82;21064;-89
2022/12/12 13:37:22;;;;;;;17.82;11.88;;;;;;;1.53;94.42;99401.84;2803871;82;21058;-93
2022/12/12 13:41:23;;;;;;;12.78;7.83;;;;;;;1.51;94.68;99406.82;2797198;83;21113;-94
2022/12/12 13:45:44;;;;;;;11.43;7.58;;;;;;;1.34;95.54;99418.27;2797262;83;21530;-94
2022/12/12 13:50:09;;;;;;;11.65;7.55;;;;;;;1.32;97.49;99426.68;2790876;82;20996;-93
2022/12/12 13:54:16;;;;;;;11.80;7.60;;;;;;;1.24;98.29;99425.35;2799343;82;21595;-93
2022/12/12 13:58:33;;;;;;;14.47;10.28;;;;;;;1.12;98.46;99437.37;2818072;82;21014;-92
2022/12/12 14:02:37;;;;;;;11.03;6.90;;;;;;;1.20;98.97;99433.47;2774603;83;21062;-93
2022/12/12 14:06:39;;;;;;;12.28;9.18;;;;;;;1.14;98.93;99434.65;2782260;83;21064;-96
2022/12/12 14:10:46;;;;;;;11.80;9.30;;;;;;;1.20;98.35;99438.25;2799339;83;21090;-96
2022/12/12 14:15:07;;;;;;;16.42;12.07;;;;;;;1.18;97.92;99446.67;2796354;83;21568;-93
2022/12/12 14:19:20;;;;;;;14.23;10.95;;;;;;;1.25;97.53;99455.86;2792628;84;21040;-95
2022/12/12 14:23:27;;;;;;;38.10;16.95;;;;;;;1.35;95.94;99457.95;2745861;84;21060;-96
2022/12/12 14:27:48;;;;;;;;;;;;;;;1.24;92.61;99463.34;2776900;83;21035;-94
2022/12/12 14:31:55;;;;;;;68.17;30.32;;;;;;;1.35;94.30;99461.88;2783304;85;20447;-92
2022/12/12 14:36:27;;;;;;;123.02;46.13;;;;;;;1.29;94.36;99457.85;2742645;86;21119;-95
2022/12/12 14:40:37;;;;;;;69.60;30.37;;;;;;;1.28;93.03;99463.55;2834143;82;21114;-92
2022/12/12 14:44:42;;;;;;;34.73;19.57;;;;;;;1.20;92.35;99474.94;2810554;82;21038;-94
2022/12/12 14:48:44;;;;;;;16.45;10.75;;;;;;;1.21;92.36;99466.14;2835633;82;21043;-94
2022/12/12 14:52:46;;;;;;;8.75;6.30;;;;;;;1.22;92.06;99482.23;2805773;83;20988;-95
2022/12/12 14:56:52;;;;;;;9.23;7.60;;;;;;;1.08;91.41;99484.77;2828682;82;21584;-96
2022/12/12 15:00:58;;;;;;;12.45;8.73;;;;;;;0.99;91.45;99484.81;2831118;82;21019;-94
2022/12/12 15:05:03;;;;;;;11.20;6.35;;;;;;;0.92;92.29;99483.47;2732035;86;21003;-96
2022/12/12 15:09:24;;;;;;;14.68;10.13;;;;;;;0.82;93.28;99487.05;2731369;85;21720;-94
2022/12/12 15:13:26;;;;;;;20.45;11.08;;;;;;;0.70;94.08;99483.33;2703415;85;21070;-94
2022/12/12 15:17:38;;;;;;;46.42;19.73;;;;;;;0.60;94.18;99485.59;2680629;88;21411;-94
2022/12/12 15:21:43;;;;;;;24.07;9.80;;;;;;;0.60;92.50;99489.97;2695016;86;21023;-95
2022/12/12 15:25:54;;;;;;;27.60;11.28;;;;;;;0.53;92.74;99511.69;2727085;85;21071;-94
2022/12/12 15:29:58;;;;;;;14.83;8.80;;;;;;;0.47;93.57;99506.31;2700629;86;21589;-96
2022/12/12 15:33:59;;;;;;;14.87;10.20;;;;;;;0.45;95.40;99518.63;2681113;87;21033;-96
2022/12/12 15:38:12;;;;;;;12.73;8.70;;;;;;;0.40;96.92;99512.36;2726415;85;21080;-96
2022/12/12 15:42:15;;;;;;;18.32;10.58;;;;;;;0.34;97.35;99520.50;2722328;86;21739;-95
2022/12/12 15:46:16;;;;;;;17.15;11.03;;;;;;;0.28;97.37;99509.88;2725263;87;21474;-94
2022/12/12 15:50:23;;;;;;;14.45;9.55;;;;;;;0.24;97.39;99518.82;2717543;86;21026;-93
2022/12/12 15:54:24;;;;;;;12.58;8.93;;;;;;;0.16;96.78;99520.13;2720200;85;21131;-94
2022/12/12 15:58:42;;;;;;;17.75;11.90;;;;;;;0.18;95.89;99523.52;2719557;85;21021;-94
2022/12/12 16:03:00;;;;;;;45.23;20.60;;;;;;;0.19;94.91;99516.91;2731111;85;21080;-94
2022/12/12 16:07:16;;;;;;;18.35;10.08;;;;;;;0.17;93.62;99523.99;2718602;85;21051;-94
2022/12/12 16:11:48;;;;;;;18.20;9.63;;;;;;;0.18;92.92;99518.28;2718109;85;21068;-93
2022/12/12 16:15:50;;;;;;;27.05;15.85;;;;;;;0.26;93.26;99521.37;2794004;83;21083;-92
2022/12/12 16:20:05;;;;;;;27.30;14.58;;;;;;;0.18;94.05;99532.67;2787708;83;21535;-94
2022/12/12 16:24:13;;;;;;;20.08;13.85;;;;;;;0.13;93.84;99532.45;2790665;83;21076;-93
2022/12/12 16:28:26;;;;;;;17.65;9.03;;;;;;;0.17;94.65;99545.37;2794494;83;21044;-94
2022/12/12 16:32:27;;;;;;;11.75;7.42;;;;;;;0.09;94.13;99549.67;2795717;82;21518;-94
2022/12/12 16:36:30;;;;;;;12.53;8.68;;;;;;;0.05;93.39;99554.23;2810490;82;24950;-94
2022/12/12 16:40:32;;;;;;;7.92;6.83;;;;;;;0.21;93.15;99564.77;2836882;83;21225;-95
2022/12/12 16:44:33;;;;;;;10.28;6.53;;;;;;;0.12;93.38;99561.31;2801177;83;21063;-92
2022/12/12 16:48:36;;;;;;;17.40;10.35;;;;;;;0.11;93.83;99557.84;2740433;84;21086;-96
2022/12/12 16:52:38;;;;;;;14.45;7.10;;;;;;;0.12;94.13;99552.99;2808206;83;21035;-92
2022/12/12 16:56:39;;;;;;;12.98;7.25;;;;;;;-0.08;94.21;99558.37;2791288;82;21031;-92
2022/12/12 17:00:40;;;;;;;10.80;5.92;;;;;;;-0.06;93.70;99565.67;2772412;84;21544;-92
2022/12/12 17:04:42;;;;;;;9.85;6.87;;;;;;;-0.16;92.97;99570.06;2798579;84;21040;-91
2022/12/12 17:08:43;;;;;;;12.55;7.20;;;;;;;-0.22;93.60;99570.34;2784629;84;21025;-92
2022/12/12 17:12:44;;;;;;;9.40;6.08;;;;;;;-0.33;94.57;99573.95;2779385;84;21096;-92
2022/12/12 17:16:46;;;;;;;14.58;7.70;;;;;;;-0.45;95.03;99584.06;2704323;86;21957;-90
2022/12/12 17:20:48;;;;;;;14.13;7.33;;;;;;;-0.35;95.37;99578.41;2747998;85;21026;-92
2022/12/12 17:24:50;;;;;;;12.35;8.28;;;;;;;-0.52;96.14;99593.56;2815720;83;21060;-93
2022/12/12 17:28:51;;;;;;;12.20;8.28;;;;;;;-0.59;96.36;99598.22;2756487;85;21066;-92
2022/12/12 17:32:53;;;;;;;32.20;15.87;;;;;;;-0.74;96.29;99604.56;2754674;85;21072;-94
2022/12/12 17:36:54;;;;;;;17.07;9.33;;;;;;;-0.75;95.93;99587.20;2757193;85;21031;-93
2022/12/12 17:40:56;;;;;;;32.98;15.08;;;;;;;-0.77;95.45;99616.91;2751373;85;21040;-94
2022/12/12 17:44:58;;;;;;;26.52;9.13;;;;;;;-0.76;94.94;99631.22;2764114;83;20955;-94
2022/12/12 17:49:00;;;;;;;11.73;6.60;;;;;;;-0.83;95.57;99638.92;2778380;84;21022;-93
2022/12/12 17:53:02;;;;;;;14.90;6.78;;;;;;;-0.84;95.91;99632.01;2728075;85;21597;-92
2022/12/12 17:57:03;;;;;;;13.95;7.42;;;;;;;-0.81;95.31;99623.20;2720787;86;21411;-92
2022/12/12 18:01:17;;;;;;;13.70;9.30;;;;;;;-0.74;95.89;99635.05;2766064;83;21128;-92
2022/12/12 18:05:18;;;;;;;12.80;7.75;;;;;;;-0.85;96.73;99630.79;2739227;85;21065;-92
2022/12/12 18:09:19;;;;;;;41.33;21.75;;;;;;;-1.04;96.05;99619.39;2683112;87;21078;-92
2022/12/12 18:13:21;;;;;;;21.40;9.55;;;;;;;-1.04;96.05;99619.39;2719104;86;21584;-94
2022/12/12 18:17:22;;;;;;;11.20;8.15;;;;;;;-0.87;96.71;99651.73;2770004;84;21088;-93
2022/12/12 18:21:28;;;;;;;31.48;16.65;;;;;;;-0.88;97.68;99663.09;2771235;85;21029;-93
2022/12/12 18:25:29;;;;;;;;;;;;;;;-0.81;96.27;99663.68;2769728;84;21072;-92
2022/12/12 18:29:31;;;;;;;15.90;8.05;;;;;;;-0.77;95.94;99658.26;2773374;83;20131;-93
2022/12/12 18:33:32;;;;;;;19.67;8.85;;;;;;;-0.66;96.71;99651.68;2751077;84;21060;-92
2022/12/12 18:37:34;;;;;;;15.20;9.13;;;;;;;-0.72;96.59;99656.28;2791918;83;21064;-92
2022/12/12 18:41:35;;;;;;;14.45;7.83;;;;;;;-0.73;96.55;99655.03;2750656;85;21028;-93
2022/12/12 18:45:37;;;;;;;10.38;7.62;;;;;;;-0.69;95.74;99672.25;2786887;83;21505;-93
2022/12/12 18:49:38;;;;;;;9.23;7.97;;;;;;;-0.68;94.57;99673.98;2776118;83;21024;-92
2022/12/12 18:53:40;;;;;;;15.78;9.80;;;;;;;-0.65;94.57;99674.27;2791542;83;21081;-93
2022/12/12 18:57:41;;;;;;;11.35;9.33;;;;;;;-0.70;95.80;99659.28;2796249;83;21071;-94
2022/12/12 19:01:43;;;;;;;12.00;8.68;;;;;;;-0.68;96.60;99673.98;2795709;83;21045;-92
2022/12/12 19:05:44;;;;;;;12.28;7.37;;;;;;;-0.63;97.72;99675.05;2791641;83;21560;-90
2022/12/12 19:09:46;;;;;;;16.75;9.25;;;;;;;-0.56;96.98;99669.09;2787396;83;21075;-92
2022/12/12 19:13:47;;;;;;;11.57;9.00;;;;;;;-0.65;95.84;99667.30;2782109;84;21580;-91
2022/12/12 19:17:49;;;;;;;15.60;9.88;;;;;;;-0.83;94.87;99661.12;2782309;83;21008;-92